Time;durP1;ratioP1;P1;durP2;ratioP2;P2;SDS_P1;SDS_P2;PMS_P1;PMS_P2;Temp;Humidity;BMP_temperature;BMP_pressure;BME280_temperature;BME280_humidity;BME280_pressure;Samples;Min_cycle;Max_cycle;Signal;HPM_P1;HPM_P2
2022/01/14 00:02:19;;;;;;;282.42;23.13;;;22.80;23.80;;;;;;5089600;28;20478;-59
2022/01/14 00:04:45;;;;;;;12.60;2.22;;;22.80;24.20;;;;;;5091129;28;20522;-60
2022/01/14 00:07:12;;;;;;;19.27;3.05;;;22.80;24.50;;;;;;5103290;28;20075;-58
2022/01/14 00:09:39;;;;;;;37.50;4.20;;;22.90;24.20;;;;;;5095481;28;20071;-61
2022/01/14 00:12:17;;;;;;;74.85;6.68;;;22.90;24.60;;;;;;5091362;28;20072;-59
2022/01/14 00:15:34;;;;;;;82.22;7.57;;;22.90;24.80;;;;;;5090644;28;20069;-60
2022/01/14 00:17:33;;;;;;;73.30;6.53;;;22.80;24.40;;;;;;5082350;28;20144;-62
2022/01/14 00:19:59;;;;;;;25.48;4.35;;;22.80;24.90;;;;;;5090829;28;20100;-61
2022/01/14 00:22:28;;;;;;;21.25;4.13;;;22.80;25.10;;;;;;5091131;28;20130;-60
2022/01/14 00:33:16;;;;;;;29.98;5.55;;;22.60;25.60;;;;;;5086331;28;20131;-59
2022/01/14 00:35:43;;;;;;;20.60;5.25;;;22.50;26.20;;;;;;5082362;28;20097;-62
2022/01/14 00:38:10;;;;;;;24.38;5.55;;;22.40;27.20;;;;;;5072456;28;20130;-63
2022/01/14 00:40:37;;;;;;;20.45;6.80;;;22.30;27.20;;;;;;5090757;28;20173;-66
2022/01/14 00:43:04;;;;;;;44.38;7.22;;;22.20;27.80;;;;;;5090330;28;20149;-62
2022/01/14 00:45:31;;;;;;;35.35;6.45;;;22.10;28.80;;;;;;5088055;28;20108;-61
2022/01/14 00:47:58;;;;;;;21.40;6.75;;;21.90;29.10;;;;;;5072469;28;20077;-63
2022/01/14 00:50:25;;;;;;;23.52;6.05;;;21.80;29.50;;;;;;5084659;28;20106;-69
2022/01/14 00:52:51;;;;;;;18.77;5.82;;;21.60;29.40;;;;;;5090089;28;20095;-57
2022/01/14 00:55:27;;;;;;;37.60;6.00;;;21.50;29.40;;;;;;5090428;28;20089;-59
2022/01/14 01:00:34;;;;;;;17.73;5.35;;;21.20;29.90;;;;;;5090639;28;20064;-57
2022/01/14 01:03:02;;;;;;;22.52;5.32;;;21.00;30.00;;;;;;5084075;28;20571;-63
2022/01/14 01:05:29;;;;;;;32.92;5.90;;;20.90;30.00;;;;;;5089131;28;20092;-66
2022/01/14 01:08:10;;;;;;;29.33;6.15;;;20.70;30.60;;;;;;5086376;28;20131;-61
2022/01/14 01:10:47;;;;;;;41.20;6.53;;;20.60;31.90;;;;;;5088705;28;20096;-58
2022/01/14 01:13:26;;;;;;;42.67;7.28;;;20.40;32.40;;;;;;5075104;28;20539;-62
2022/01/14 01:15:54;;;;;;;39.40;6.38;;;20.30;32.50;;;;;;5087082;28;20107;-60
2022/01/14 01:18:21;;;;;;;34.20;6.93;;;20.20;32.90;;;;;;5083991;28;20085;-62
2022/01/14 01:20:48;;;;;;;33.15;8.23;;;20.10;33.10;;;;;;5084367;28;20620;-62
2022/01/14 01:23:14;;;;;;;49.00;10.00;;;19.90;34.00;;;;;;5071847;28;20092;-60
2022/01/14 01:25:46;;;;;;;37.13;9.75;;;19.70;36.00;;;;;;5080205;28;20059;-61
2022/01/14 01:28:13;;;;;;;55.85;9.15;;;19.70;34.20;;;;;;5081120;28;20072;-62
2022/01/14 01:33:15;;;;;;;42.45;9.20;;;19.50;34.80;;;;;;5085911;28;20181;-61
2022/01/14 01:35:42;;;;;;;55.33;10.45;;;19.40;35.40;;;;;;5069906;28;20081;-63
2022/01/14 01:38:15;;;;;;;53.95;9.18;;;19.30;36.10;;;;;;5067648;23;20132;-61
2022/01/14 01:40:43;;;;;;;46.90;8.95;;;19.30;36.00;;;;;;5046509;28;20527;-62
2022/01/14 01:43:12;;;;;;;35.05;7.18;;;19.20;36.20;;;;;;5047640;28;20227;-61
2022/01/14 01:45:38;;;;;;;38.33;8.25;;;19.10;36.80;;;;;;5046834;28;20118;-60
2022/01/14 01:48:06;;;;;;;55.58;8.77;;;18.60;39.60;;;;;;5046497;28;20537;-60
2022/01/14 01:50:36;;;;;;;41.60;8.98;;;18.90;37.00;;;;;;5046810;28;20081;-68
2022/01/14 01:53:04;;;;;;;41.00;8.70;;;18.90;37.70;;;;;;5064589;28;20154;-58
2022/01/14 01:55:31;;;;;;;35.83;8.13;;;18.80;38.50;;;;;;5046454;28;20073;-60
2022/01/14 01:57:57;;;;;;;38.72;8.32;;;18.80;38.10;;;;;;5046731;28;20084;-62
2022/01/14 02:00:26;;;;;;;49.10;9.50;;;18.70;38.30;;;;;;5046382;28;20094;-62
2022/01/14 02:02:56;;;;;;;34.53;8.93;;;18.60;38.60;;;;;;5046177;28;20093;-63
2022/01/14 02:05:24;;;;;;;50.38;8.63;;;18.60;38.90;;;;;;5045549;28;20097;-58
2022/01/14 02:07:51;;;;;;;40.33;9.32;;;18.50;39.10;;;;;;5045493;28;20172;-60
2022/01/14 02:10:17;;;;;;;37.92;8.30;;;18.50;39.00;;;;;;5045931;28;20093;-60
2022/01/14 02:12:50;;;;;;;48.10;8.20;;;18.40;39.10;;;;;;5028915;28;20085;-62
2022/01/14 02:23:30;;;;;;;72.57;11.95;;;18.30;39.60;;;;;;5049615;28;20423;-60
2022/01/14 02:25:57;;;;;;;61.17;10.27;;;18.30;40.70;;;;;;5046610;28;20120;-62
2022/01/14 02:28:23;;;;;;;43.55;10.05;;;18.30;40.20;;;;;;5036907;28;20128;-61
2022/01/14 02:30:51;;;;;;;47.83;10.45;;;18.20;39.70;;;;;;5047657;28;20089;-60
2022/01/14 02:33:19;;;;;;;61.08;12.90;;;18.20;39.70;;;;;;5048244;28;20648;-58
2022/01/14 02:35:49;;;;;;;49.33;11.70;;;18.20;39.70;;;;;;5047547;28;20410;-60
2022/01/14 02:38:17;;;;;;;55.17;11.00;;;18.20;40.00;;;;;;5050180;28;20117;-61
2022/01/14 02:40:45;;;;;;;61.17;12.70;;;18.20;39.60;;;;;;5047013;28;20187;-61
2022/01/14 02:43:14;;;;;;;53.38;12.02;;;18.20;40.50;;;;;;5030985;28;20134;-61
2022/01/14 02:45:54;;;;;;;51.10;10.93;;;18.20;41.40;;;;;;5046299;28;20231;-62
2022/01/14 02:48:26;;;;;;;66.03;11.23;;;18.20;40.60;;;;;;5044509;28;20500;-63
2022/01/14 02:51:00;;;;;;;48.78;9.75;;;18.20;40.80;;;;;;5045894;28;20093;-63
2022/01/14 02:56:11;;;;;;;52.22;10.35;;;18.20;40.40;;;;;;5046508;28;20065;-61
2022/01/14 02:58:39;;;;;;;70.38;12.30;;;18.20;40.30;;;;;;5046518;28;20066;-61
2022/01/14 03:01:13;;;;;;;49.67;9.57;;;18.20;40.40;;;;;;5030790;28;20548;-60
2022/01/14 03:03:43;;;;;;;70.35;14.13;;;18.20;40.60;;;;;;5047468;28;20093;-62
2022/01/14 03:06:10;;;;;;;55.40;13.07;;;18.30;40.70;;;;;;5045152;28;20101;-60
2022/01/14 03:08:37;;;;;;;64.35;15.18;;;18.20;40.40;;;;;;5046987;28;20594;-62
2022/01/14 03:11:08;;;;;;;66.22;15.70;;;18.20;39.40;;;;;;5047019;28;20074;-60
2022/01/14 03:13:36;;;;;;;66.30;15.50;;;18.20;39.40;;;;;;5048278;28;20184;-61
2022/01/14 03:16:03;;;;;;;58.35;14.13;;;18.20;39.50;;;;;;5048304;28;20542;-61
2022/01/14 03:18:34;;;;;;;64.03;15.25;;;18.20;40.20;;;;;;5047501;28;20081;-62
2022/01/14 03:21:27;;;;;;;53.65;14.07;;;18.30;39.80;;;;;;5063136;28;20082;-63
2022/01/14 03:24:01;;;;;;;55.17;15.23;;;18.20;39.70;;;;;;5048500;28;20069;-57
2022/01/14 03:26:28;;;;;;;45.08;13.20;;;18.20;39.80;;;;;;5047332;28;20073;-61
2022/01/14 03:28:55;;;;;;;54.38;13.13;;;18.20;40.10;;;;;;5047201;28;20070;-52
2022/01/14 03:31:22;;;;;;;51.35;13.30;;;18.20;40.00;;;;;;5047347;28;20109;-60
2022/01/14 03:33:48;;;;;;;63.35;12.82;;;18.20;40.40;;;;;;5046357;28;20590;-62
2022/01/14 03:36:14;;;;;;;37.55;11.73;;;18.20;41.00;;;;;;5048117;28;20114;-61
2022/01/14 03:38:41;;;;;;;53.13;11.18;;;18.20;41.40;;;;;;5049855;28;20444;-60
2022/01/14 03:41:07;;;;;;;;;;;18.20;41.60;;;;;;5051028;28;20070;-60
2022/01/14 03:43:36;;;;;;;46.90;11.82;;;18.10;41.10;;;;;;5065895;28;19961;-61
2022/01/14 03:46:03;;;;;;;47.53;13.75;;;18.00;41.80;;;;;;5050249;28;20123;-59
2022/01/14 03:48:29;;;;;;;46.90;15.63;;;18.00;42.40;;;;;;5041819;28;20099;-56
2022/01/14 03:50:56;;;;;;;68.63;18.73;;;17.90;42.50;;;;;;5057282;28;20073;-63
2022/01/14 03:53:22;;;;;;;55.78;17.55;;;17.80;43.20;;;;;;5052535;28;20543;-62
2022/01/14 03:55:49;;;;;;;47.83;15.85;;;17.90;43.40;;;;;;5050972;28;20093;-63
2022/01/14 03:58:15;;;;;;;57.10;15.63;;;17.80;43.70;;;;;;5051062;28;20412;-61
2022/01/14 04:00:41;;;;;;;;;;;17.80;44.70;;;;;;5050112;28;20170;-59
2022/01/14 04:03:08;;;;;;;35.97;11.15;;;17.70;44.40;;;;;;5051077;28;19973;-62
2022/01/14 04:05:35;;;;;;;46.20;10.82;;;17.70;44.60;;;;;;5050664;28;20172;-58
2022/01/14 04:08:02;;;;;;;37.65;10.45;;;17.70;44.80;;;;;;5066413;28;20116;-60
2022/01/14 04:10:29;;;;;;;46.42;10.13;;;17.60;45.10;;;;;;5033212;28;20541;-59
2022/01/14 04:15:37;;;;;;;35.63;9.30;;;17.50;45.70;;;;;;5051210;28;20065;-63
2022/01/14 04:18:09;;;;;;;39.83;9.52;;;17.50;46.00;;;;;;5049860;28;20128;-60
2022/01/14 04:20:37;;;;;;;44.08;9.35;;;17.50;45.90;;;;;;5050144;28;20408;-62
2022/01/14 04:23:05;;;;;;;40.65;9.68;;;17.40;46.00;;;;;;5052204;28;20085;-61
2022/01/14 04:25:33;;;;;;;47.63;9.25;;;17.40;46.40;;;;;;5050211;28;20088;-58
2022/01/14 04:28:00;;;;;;;37.60;10.02;;;17.40;47.10;;;;;;5049444;28;20548;-59
2022/01/14 04:30:26;;;;;;;30.80;8.13;;;17.30;47.60;;;;;;5050102;28;20225;-62
2022/01/14 04:32:53;;;;;;;27.77;8.50;;;17.30;47.40;;;;;;5049476;28;20093;-61
2022/01/14 04:35:19;;;;;;;;;;;17.20;47.10;;;;;;5048792;28;20108;-60
2022/01/14 04:37:45;;;;;;;44.60;9.75;;;17.10;47.40;;;;;;5059809;28;20366;-59
2022/01/14 04:40:15;;;;;;;;;;;17.00;47.90;;;;;;5051320;28;20090;-62
2022/01/14 04:42:43;;;;;;;42.22;9.88;;;17.00;48.20;;;;;;5050009;28;19957;-61
2022/01/14 04:45:12;;;;;;;48.13;9.10;;;17.00;48.40;;;;;;5049931;28;20062;-61
2022/01/14 04:47:45;;;;;;;38.75;9.48;;;17.00;48.50;;;;;;5048617;28;20132;-61
2022/01/14 04:50:17;;;;;;;42.10;9.40;;;17.00;48.40;;;;;;5049650;28;20084;-63
2022/01/14 04:52:45;;;;;;;37.85;9.65;;;17.00;48.40;;;;;;5052187;28;20455;-62
2022/01/14 04:55:14;;;;;;;36.42;10.18;;;17.00;48.90;;;;;;5033443;28;20093;-60
2022/01/14 04:57:41;;;;;;;43.45;10.35;;;17.00;48.90;;;;;;5049319;28;20076;-58
2022/01/14 05:00:10;;;;;;;37.67;9.68;;;17.10;49.00;;;;;;5048913;28;20490;-57
2022/01/14 05:02:37;;;;;;;36.03;9.02;;;17.00;48.90;;;;;;5048616;28;20089;-59
2022/01/14 05:05:08;;;;;;;27.38;9.05;;;17.00;48.70;;;;;;5048577;28;20078;-58
2022/01/14 05:07:35;;;;;;;30.77;9.40;;;17.00;48.70;;;;;;5051418;28;20108;-58
2022/01/14 05:12:33;;;;;;;39.13;9.43;;;17.00;49.10;;;;;;5048485;28;20061;-59
2022/01/14 05:15:01;;;;;;;40.55;9.43;;;17.00;49.20;;;;;;5049140;28;20070;-59
2022/01/14 05:17:28;;;;;;;37.40;9.88;;;17.00;49.10;;;;;;5048186;28;20089;-62
2022/01/14 05:19:57;;;;;;;36.85;9.45;;;16.90;49.40;;;;;;5047987;28;20466;-62
2022/01/14 05:22:27;;;;;;;47.50;10.48;;;17.00;49.60;;;;;;5049434;28;20108;-61
2022/01/14 05:24:54;;;;;;;36.97;10.20;;;17.00;50.00;;;;;;5065512;28;20081;-60
2022/01/14 05:27:21;;;;;;;50.58;10.70;;;17.00;50.60;;;;;;5048811;28;20412;-62
2022/01/14 05:29:47;;;;;;;46.83;10.45;;;16.90;50.50;;;;;;5047363;28;20156;-61
2022/01/14 05:32:15;;;;;;;42.60;11.98;;;16.80;50.80;;;;;;5047799;28;20072;-57
2022/01/14 05:34:45;;;;;;;53.88;12.70;;;16.90;51.00;;;;;;5049377;28;20089;-58
2022/01/14 05:37:13;;;;;;;59.95;12.60;;;16.90;50.60;;;;;;5047478;28;20097;-59
2022/01/14 05:39:41;;;;;;;39.63;12.55;;;16.90;50.70;;;;;;5049539;28;20093;-60
2022/01/14 05:42:09;;;;;;;54.25;12.75;;;16.90;50.80;;;;;;5048429;28;20088;-59
2022/01/14 05:44:35;;;;;;;57.90;12.52;;;16.90;50.50;;;;;;5047941;28;20122;-60
2022/01/14 05:47:02;;;;;;;56.13;13.35;;;16.90;50.50;;;;;;5048420;28;20595;-57
2022/01/14 05:49:29;;;;;;;37.08;11.43;;;16.90;50.50;;;;;;5048624;28;20077;-61
2022/01/14 05:51:56;;;;;;;44.20;11.57;;;16.90;50.60;;;;;;5048582;28;20147;-58
2022/01/14 05:54:22;;;;;;;51.38;11.70;;;16.90;50.30;;;;;;5051126;28;20562;-64
2022/01/14 05:56:49;;;;;;;38.92;11.68;;;16.90;51.00;;;;;;5047611;28;20077;-60
2022/01/14 05:59:16;;;;;;;53.85;12.75;;;16.90;51.20;;;;;;5047829;28;20069;-63
2022/01/14 06:01:44;;;;;;;49.47;10.88;;;17.00;51.20;;;;;;5048262;28;20069;-60
2022/01/14 06:04:10;;;;;;;40.75;10.95;;;16.90;51.30;;;;;;5047196;28;20089;-60
2022/01/14 06:06:37;;;;;;;40.97;10.80;;;16.90;51.40;;;;;;5049512;28;20135;-62
2022/01/14 06:09:04;;;;;;;43.40;9.98;;;16.90;51.30;;;;;;5063620;28;20070;-62
2022/01/14 06:11:31;;;;;;;54.63;10.80;;;16.90;51.20;;;;;;5047478;28;20116;-58
2022/01/14 06:13:57;;;;;;;41.60;10.63;;;17.00;50.50;;;;;;5064354;28;20089;-62
2022/01/14 06:16:24;;;;;;;60.90;11.18;;;17.00;51.20;;;;;;5047322;28;20070;-60
2022/01/14 06:18:50;;;;;;;45.35;11.65;;;17.00;50.50;;;;;;5048011;28;20095;-58
2022/01/14 06:21:16;;;;;;;;;;;17.00;50.80;;;;;;5049633;28;20063;-61
2022/01/14 06:23:43;;;;;;;51.90;11.77;;;17.00;51.10;;;;;;5048640;28;19961;-60
2022/01/14 06:26:09;;;;;;;35.58;11.05;;;17.00;50.90;;;;;;5048867;28;20081;-60
2022/01/14 06:28:36;;;;;;;57.45;13.00;;;17.00;50.80;;;;;;5047948;28;20078;-61
2022/01/14 06:31:02;;;;;;;;;;;17.00;50.30;;;;;;5048969;28;20074;-62
2022/01/14 06:33:28;;;;;;;48.13;11.80;;;17.00;50.50;;;;;;5048644;28;20031;-59
2022/01/14 06:35:54;;;;;;;;;;;17.00;50.30;;;;;;5048543;28;20439;-59
2022/01/14 06:38:21;;;;;;;59.65;12.27;;;17.00;50.30;;;;;;5048519;28;20038;-59
2022/01/14 06:40:48;;;;;;;54.10;12.10;;;17.00;50.30;;;;;;5048895;28;20478;-62
2022/01/14 06:43:18;;;;;;;36.83;11.00;;;17.00;50.80;;;;;;5046657;28;20076;-59
2022/01/14 06:45:44;;;;;;;61.70;14.27;;;17.10;50.80;;;;;;5046880;28;20078;-64
2022/01/14 06:48:11;;;;;;;51.35;13.23;;;17.10;50.60;;;;;;5046979;28;20070;-58
2022/01/14 06:50:37;;;;;;;;;;;17.10;51.40;;;;;;5046736;28;20081;-60
2022/01/14 06:53:04;;;;;;;71.68;14.25;;;17.10;51.60;;;;;;5049111;28;19977;-61
2022/01/14 06:55:30;;;;;;;64.30;14.48;;;17.10;51.70;;;;;;5047900;28;20091;-62
2022/01/14 06:57:57;;;;;;;55.30;14.35;;;17.10;51.80;;;;;;5046660;28;20119;-62
2022/01/14 07:00:23;;;;;;;71.00;15.20;;;17.10;52.20;;;;;;5047263;28;20524;-59
2022/01/14 07:02:50;;;;;;;66.45;15.02;;;17.00;51.40;;;;;;5045097;28;20097;-60
2022/01/14 07:05:16;;;;;;;65.70;15.77;;;17.00;51.10;;;;;;5046656;28;20074;-58
2022/01/14 07:07:42;;;;;;;;;;;17.00;51.10;;;;;;5066248;28;20097;-61
2022/01/14 07:10:09;;;;;;;72.22;17.05;;;17.00;51.40;;;;;;5050765;28;20465;-60
2022/01/14 07:12:40;;;;;;;69.70;16.98;;;17.00;51.40;;;;;;5049425;28;20131;-60
2022/01/14 07:15:10;;;;;;;67.45;17.13;;;17.00;51.40;;;;;;5050933;28;20077;-60
2022/01/14 07:17:37;;;;;;;90.13;18.30;;;17.00;51.80;;;;;;5051999;28;20077;-60
2022/01/14 07:20:08;;;;;;;55.83;16.98;;;16.90;52.10;;;;;;5050422;28;20086;-63
2022/01/14 07:22:35;;;;;;;61.53;19.00;;;16.90;52.00;;;;;;5050532;28;20446;-57
2022/01/14 07:25:02;;;;;;;82.05;20.10;;;16.90;51.80;;;;;;5034819;28;20076;-60
2022/01/14 07:27:29;;;;;;;78.45;21.00;;;16.90;51.40;;;;;;5051042;28;20090;-62
2022/01/14 07:29:56;;;;;;;62.75;20.00;;;16.80;51.20;;;;;;5049510;28;20081;-61
2022/01/14 07:32:22;;;;;;;104.85;21.52;;;16.80;51.40;;;;;;5050617;28;20081;-60
2022/01/14 07:34:49;;;;;;;66.07;19.95;;;16.80;52.00;;;;;;5049305;28;20574;-60
2022/01/14 07:37:16;;;;;;;80.15;21.65;;;16.80;51.40;;;;;;5050190;28;20121;-58
2022/01/14 07:39:43;;;;;;;88.10;22.13;;;16.80;50.90;;;;;;5049238;28;20147;-60
2022/01/14 07:42:09;;;;;;;105.10;21.90;;;16.80;51.20;;;;;;5050082;28;20083;-60
2022/01/14 07:44:35;;;;;;;;;;;16.80;51.30;;;;;;5052041;28;20151;-59
2022/01/14 07:47:02;;;;;;;104.80;23.67;;;16.70;51.40;;;;;;5066102;28;19964;-58
2022/01/14 07:49:28;;;;;;;83.88;23.58;;;16.70;51.70;;;;;;5050337;28;20444;-62
2022/01/14 07:51:55;;;;;;;;;;;16.70;52.10;;;;;;5051102;28;20107;-61
2022/01/14 07:54:21;;;;;;;80.00;23.58;;;16.60;52.10;;;;;;5067369;28;19979;-60
2022/01/14 07:56:51;;;;;;;91.00;22.23;;;16.60;51.80;;;;;;5051437;28;20085;-63
2022/01/14 07:59:23;;;;;;;85.80;23.38;;;16.50;52.50;;;;;;5050081;28;20438;-59
2022/01/14 08:01:51;;;;;;;85.30;22.45;;;16.50;52.50;;;;;;5048870;28;20532;-58
2022/01/14 08:04:18;;;;;;;99.90;22.50;;;16.50;52.00;;;;;;5033148;28;20085;-60
2022/01/14 08:06:48;;;;;;;73.47;22.45;;;16.40;52.20;;;;;;5050297;28;20110;-59
2022/01/14 08:09:15;;;;;;;87.63;22.38;;;16.40;52.40;;;;;;5065484;28;20081;-59
2022/01/14 08:11:43;;;;;;;96.88;23.52;;;16.30;52.40;;;;;;5066182;28;20127;-60
2022/01/14 08:14:11;;;;;;;82.30;22.60;;;16.30;52.90;;;;;;5051077;28;20101;-59
2022/01/14 08:16:37;;;;;;;105.28;23.80;;;16.20;53.40;;;;;;5048425;28;20147;-60
2022/01/14 08:19:04;;;;;;;88.35;24.48;;;16.20;54.00;;;;;;5049394;28;20073;-60
2022/01/14 08:21:31;;;;;;;82.28;22.27;;;16.10;54.60;;;;;;5050646;28;20070;-62
2022/01/14 08:23:57;;;;;;;82.47;22.70;;;16.10;54.30;;;;;;5049456;28;20074;-59
2022/01/14 08:26:24;;;;;;;71.32;21.38;;;16.10;54.30;;;;;;5049527;28;20089;-59
2022/01/14 08:28:51;;;;;;;91.90;23.27;;;16.00;53.90;;;;;;5050574;28;20084;-60
2022/01/14 08:31:18;;;;;;;;;;;16.10;54.70;;;;;;5050480;28;20089;-59
2022/01/14 08:33:46;;;;;;;86.03;21.63;;;16.00;55.10;;;;;;5065128;28;20068;-61
2022/01/14 08:36:13;;;;;;;82.35;21.38;;;15.90;55.50;;;;;;5047616;28;20587;-59
2022/01/14 08:38:39;;;;;;;67.05;19.05;;;15.90;55.40;;;;;;5049197;28;20503;-60
2022/01/14 08:41:07;;;;;;;76.35;20.25;;;16.00;55.40;;;;;;5049926;28;20076;-60
2022/01/14 08:43:33;;;;;;;86.30;22.23;;;15.90;55.20;;;;;;5048577;28;20123;-59
2022/01/14 08:46:02;;;;;;;103.32;21.50;;;15.90;56.00;;;;;;5049119;28;20078;-60
2022/01/14 08:48:33;;;;;;;77.22;18.98;;;15.90;56.30;;;;;;5049106;28;20184;-60
2022/01/14 08:50:59;;;;;;;76.53;20.10;;;15.90;55.60;;;;;;5049924;28;20081;-61
2022/01/14 08:53:25;;;;;;;;;;;15.90;55.60;;;;;;5048001;28;21328;-61
2022/01/14 08:55:52;;;;;;;68.57;19.75;;;15.80;55.00;;;;;;5049588;28;20360;-59
2022/01/14 08:58:18;;;;;;;;;;;15.80;55.10;;;;;;5048892;28;20525;-61
2022/01/14 09:00:44;;;;;;;69.95;18.83;;;15.80;55.60;;;;;;5050341;28;19953;-60
2022/01/14 09:03:10;;;;;;;;;;;15.80;55.40;;;;;;5031816;28;20120;-64
2022/01/14 09:05:37;;;;;;;75.05;20.77;;;15.70;55.50;;;;;;5049170;28;20068;-61
2022/01/14 09:08:04;;;;;;;69.53;19.75;;;15.70;56.20;;;;;;5047924;28;20120;-60
2022/01/14 09:10:30;;;;;;;77.30;18.75;;;15.60;56.70;;;;;;5048884;28;20218;-62
2022/01/14 09:12:56;;;;;;;;;;;15.60;57.70;;;;;;5048932;28;20085;-60
2022/01/14 09:15:23;;;;;;;86.22;21.10;;;15.60;57.10;;;;;;5049566;28;19976;-58
2022/01/14 09:17:49;;;;;;;75.75;20.38;;;15.50;56.80;;;;;;5048293;28;20482;-58
2022/01/14 09:20:15;;;;;;;;;;;15.50;56.90;;;;;;5032778;28;20101;-62
2022/01/14 09:22:48;;;;;;;71.05;19.23;;;15.50;57.40;;;;;;5049875;28;20059;-60
2022/01/14 09:25:16;;;;;;;78.20;20.30;;;15.40;57.30;;;;;;5050175;28;20086;-59
2022/01/14 09:27:43;;;;;;;80.30;19.88;;;15.50;58.20;;;;;;5049555;28;20114;-58
2022/01/14 09:30:10;;;;;;;88.68;21.50;;;15.50;57.20;;;;;;5048909;28;20089;-62
2022/01/14 09:32:36;;;;;;;69.88;20.98;;;15.50;57.80;;;;;;5047846;28;20069;-58
2022/01/14 09:35:04;;;;;;;;;;;15.40;58.00;;;;;;5032467;28;20135;-60
2022/01/14 09:37:31;;;;;;;81.68;20.45;;;15.40;57.40;;;;;;5057821;28;19985;-60
2022/01/14 09:39:58;;;;;;;77.40;21.15;;;15.30;57.80;;;;;;5047756;28;20100;-61
2022/01/14 09:42:24;;;;;;;72.82;21.80;;;15.30;57.90;;;;;;5046763;28;20074;-61
2022/01/14 09:44:50;;;;;;;;;;;15.30;58.10;;;;;;5048184;28;20071;-60
2022/01/14 09:47:19;;;;;;;93.88;23.73;;;15.30;58.10;;;;;;5048204;28;20417;-61
2022/01/14 09:49:46;;;;;;;86.93;24.08;;;15.30;58.10;;;;;;5049373;28;20076;-62
2022/01/14 09:52:14;;;;;;;116.05;26.38;;;15.20;57.60;;;;;;5048514;28;20431;-60
2022/01/14 09:54:46;;;;;;;103.28;27.95;;;15.20;57.30;;;;;;5032373;28;20108;-62
2022/01/14 09:57:14;;;;;;;108.38;27.02;;;15.20;57.20;;;;;;5047047;28;20066;-58
2022/01/14 09:59:41;;;;;;;124.60;27.02;;;15.10;57.40;;;;;;5031031;28;20081;-61
2022/01/14 10:02:07;;;;;;;;;;;15.10;57.80;;;;;;5046446;28;20100;-61
2022/01/14 10:04:35;;;;;;;114.60;29.65;;;15.10;57.90;;;;;;5047688;28;20011;-60
2022/01/14 10:07:03;;;;;;;106.30;30.08;;;15.00;58.00;;;;;;5030763;28;20070;-61
2022/01/14 10:09:40;;;;;;;101.40;34.15;;;15.00;58.20;;;;;;5047546;28;20069;-62
2022/01/14 10:12:20;;;;;;;127.50;35.15;;;15.10;58.10;;;;;;5030654;28;20134;-61
2022/01/14 10:15:09;;;;;;;179.48;45.17;;;15.10;57.80;;;;;;5048953;28;20097;-62
2022/01/14 10:17:37;;;;;;;169.38;48.30;;;15.10;56.40;;;;;;5046759;28;20073;-61
2022/01/14 10:20:05;;;;;;;134.23;42.60;;;15.00;55.30;;;;;;5047463;28;20139;-61
2022/01/14 10:22:34;;;;;;;173.35;46.22;;;15.10;55.50;;;;;;5049714;28;20065;-61
2022/01/14 10:25:15;;;;;;;161.68;47.00;;;15.10;55.60;;;;;;5048375;28;20168;-61
2022/01/14 10:27:43;;;;;;;158.88;45.42;;;15.10;55.80;;;;;;5047364;28;20085;-62
2022/01/14 10:30:16;;;;;;;137.93;44.58;;;15.20;55.40;;;;;;5047711;28;20451;-63
2022/01/14 10:32:44;;;;;;;160.18;45.88;;;15.10;54.10;;;;;;5040367;28;20527;-64
2022/01/14 10:35:14;;;;;;;177.65;46.92;;;15.10;54.40;;;;;;5047402;28;21045;-57
2022/01/14 10:37:41;;;;;;;161.82;44.55;;;15.20;54.80;;;;;;5046748;28;20113;-60
2022/01/14 10:40:17;;;;;;;168.10;42.80;;;15.20;54.50;;;;;;5047808;28;20642;-62
2022/01/14 10:42:45;;;;;;;156.68;43.90;;;15.20;54.50;;;;;;5030300;28;20474;-62
2022/01/14 10:45:22;;;;;;;157.98;45.85;;;15.20;54.30;;;;;;5047881;28;20069;-58
2022/01/14 10:48:04;;;;;;;154.25;46.50;;;15.20;54.60;;;;;;5045562;28;21474;-58
2022/01/14 10:50:32;;;;;;;146.07;44.83;;;15.20;55.40;;;;;;5047528;28;20081;-60
2022/01/14 10:53:00;;;;;;;175.05;45.97;;;15.20;55.70;;;;;;5063284;28;20117;-61
2022/01/14 10:55:31;;;;;;;188.95;45.53;;;15.20;55.50;;;;;;5047026;28;20092;-58
2022/01/14 10:57:58;;;;;;;156.07;44.63;;;14.70;64.10;;;;;;5047201;28;20559;-61
2022/01/14 11:00:25;;;;;;;166.70;43.85;;;15.10;54.90;;;;;;5045397;28;20091;-59
2022/01/14 11:02:56;;;;;;;153.10;43.72;;;15.00;54.70;;;;;;5047405;28;20090;-60
2022/01/14 11:05:24;;;;;;;139.00;42.30;;;15.10;55.20;;;;;;5048740;28;20085;-58
2022/01/14 11:07:52;;;;;;;176.98;44.17;;;15.10;54.30;;;;;;5030559;28;20108;-60
2022/01/14 11:10:25;;;;;;;185.85;43.47;;;15.00;53.50;;;;;;5048253;28;21498;-60
2022/01/14 11:12:54;;;;;;;151.13;40.60;;;15.00;52.90;;;;;;5049117;28;20576;-61
2022/01/14 11:15:23;;;;;;;189.20;43.92;;;15.10;79.70;;;;;;5048900;28;20067;-60
2022/01/14 11:17:52;;;;;;;216.77;44.88;;;15.00;52.70;;;;;;5063240;28;20563;-63
2022/01/14 11:20:29;;;;;;;157.77;42.30;;;15.10;53.10;;;;;;5045919;28;20109;-59
2022/01/14 11:23:14;;;;;;;177.55;43.03;;;15.10;52.80;;;;;;5048680;28;20107;-59
2022/01/14 11:26:01;;;;;;;192.50;44.85;;;15.20;83.50;;;;;;5046107;28;20028;-59
2022/01/14 11:28:39;;;;;;;191.10;45.75;;;15.10;53.70;;;;;;5029854;28;20505;-60
2022/01/14 11:31:30;;;;;;;168.80;44.47;;;15.10;87.10;;;;;;5046880;28;20156;-61
2022/01/14 11:33:59;;;;;;;183.82;45.15;;;15.10;85.70;;;;;;5036109;28;20097;-59
2022/01/14 11:36:45;;;;;;;180.82;45.70;;;15.00;53.50;;;;;;5047622;28;20073;-59
2022/01/14 11:39:22;;;;;;;189.07;46.70;;;15.10;53.80;;;;;;5046212;28;20077;-62
2022/01/14 11:41:51;;;;;;;166.05;43.85;;;15.10;53.50;;;;;;5029620;28;20086;-63
2022/01/14 11:44:45;;;;;;;183.30;46.08;;;15.10;53.30;;;;;;5046620;28;20462;-58
2022/01/14 11:47:28;;;;;;;169.25;46.78;;;15.10;52.80;;;;;;5042199;28;20504;-61
2022/01/14 11:49:59;;;;;;;185.85;48.67;;;15.00;52.90;;;;;;5045868;28;20528;-58
2022/01/14 11:52:37;;;;;;;193.70;45.67;;;15.10;53.00;;;;;;5044564;28;20613;-63
2022/01/14 11:55:19;;;;;;;169.38;48.80;;;15.10;52.90;;;;;;5044727;28;20539;-62
2022/01/14 11:57:47;;;;;;;156.75;46.58;;;15.20;53.40;;;;;;5047285;28;20073;-61
2022/01/14 12:00:33;;;;;;;182.18;48.33;;;15.10;53.10;;;;;;5049538;28;20447;-58
2022/01/14 12:03:14;;;;;;;178.90;48.90;;;15.20;60.50;;;;;;5050331;28;20064;-58
2022/01/14 12:05:56;;;;;;;161.68;47.95;;;15.20;52.90;;;;;;5065857;28;20088;-63
2022/01/14 12:08:31;;;;;;;178.20;47.72;;;15.20;52.90;;;;;;5050608;28;20089;-59
2022/01/14 12:11:16;;;;;;;162.43;45.55;;;15.20;52.90;;;;;;5065462;28;20106;-63
2022/01/14 12:14:05;;;;;;;159.27;45.28;;;15.20;52.90;;;;;;5049625;28;20108;-62
2022/01/14 12:19:02;;;;;;;137.20;41.30;;;15.20;53.00;;;;;;5051148;28;20139;-62
2022/01/14 12:21:50;;;;;;;140.80;41.75;;;15.30;53.10;;;;;;5050949;28;20429;-64
2022/01/14 12:24:19;;;;;;;149.55;42.58;;;15.30;53.20;;;;;;5037348;28;20172;-62
2022/01/14 12:26:55;;;;;;;146.77;43.08;;;15.40;53.20;;;;;;5048978;28;20485;-62
2022/01/14 12:29:32;;;;;;;165.32;43.22;;;15.40;53.40;;;;;;5049685;28;20128;-59
2022/01/14 12:32:04;;;;;;;;;;;15.40;53.80;;;;;;5051212;28;20077;-60
2022/01/14 12:34:32;;;;;;;142.77;42.63;;;15.40;53.60;;;;;;5064846;28;19980;-60
2022/01/14 12:36:58;;;;;;;142.10;42.83;;;15.40;53.20;;;;;;5050029;28;20101;-62
2022/01/14 12:39:25;;;;;;;151.07;43.88;;;15.40;53.40;;;;;;5048479;28;21011;-60
2022/01/14 12:41:54;;;;;;;158.35;44.63;;;15.30;53.50;;;;;;5049275;28;20076;-59
2022/01/14 12:44:22;;;;;;;163.32;44.53;;;15.40;53.70;;;;;;5048105;28;20176;-62
2022/01/14 12:47:05;;;;;;;127.90;40.45;;;15.40;54.10;;;;;;5047975;28;20077;-61
2022/01/14 12:49:38;;;;;;;140.60;42.75;;;15.40;54.00;;;;;;5047797;28;20080;-60
2022/01/14 12:52:07;;;;;;;150.15;44.25;;;15.30;53.80;;;;;;5050822;28;20081;-61
2022/01/14 12:54:40;;;;;;;145.73;43.42;;;15.30;53.80;;;;;;5067100;28;20092;-62
2022/01/14 12:57:07;;;;;;;149.80;43.35;;;15.30;54.10;;;;;;5048119;28;20498;-60
2022/01/14 12:59:45;;;;;;;140.82;42.67;;;15.40;54.00;;;;;;5048952;28;20184;-60
2022/01/14 13:02:31;;;;;;;140.63;42.15;;;15.30;54.00;;;;;;5048447;28;20081;-60
2022/01/14 13:05:12;;;;;;;152.20;42.50;;;15.30;54.00;;;;;;5049701;28;20493;-61
2022/01/14 13:07:40;;;;;;;138.00;39.75;;;15.30;54.10;;;;;;5064425;28;20528;-60
2022/01/14 13:10:08;;;;;;;141.68;43.83;;;15.30;54.50;;;;;;5048203;28;20135;-61
2022/01/14 13:12:40;;;;;;;145.77;41.40;;;15.30;54.80;;;;;;5049586;28;20089;-59
2022/01/14 13:15:13;;;;;;;124.82;36.67;;;15.10;57.10;;;;;;5047633;28;20077;-62
2022/01/14 13:17:49;;;;;;;92.78;29.25;;;15.10;92.20;;;;;;5047243;28;20021;-59